Time;durP1;ratioP1;P1;durP2;ratioP2;P2;SDS_P1;SDS_P2;PMS_P1;PMS_P2;Temp;Humidity;BMP_temperature;BMP_pressure;BME280_temperature;BME280_humidity;BME280_pressure;Samples;Min_cycle;Max_cycle;Signal;HPM_P1;HPM_P2
2022/06/11 00:00:52;;;;;;;5.63;3.70;;;;;;;;;;5012475;28;20045;-72
2022/06/11 00:03:19;;;;;;;3.53;3.15;;;;;;;;;;5006154;28;20456;-72
2022/06/11 00:05:46;;;;;;;4.55;3.47;;;;;;;;;;4992848;28;20058;-72
2022/06/11 00:08:12;;;;;;;7.10;3.70;;;;;;;;;;4994190;28;20065;-72
2022/06/11 00:10:39;;;;;;;6.47;3.38;;;;;;;;;;4992862;28;20050;-72
2022/06/11 00:13:06;;;;;;;7.63;3.85;;;;;;;;;;4993530;28;20105;-72
2022/06/11 00:15:33;;;;;;;5.35;3.78;;;;;;;;;;4993818;28;20142;-72
2022/06/11 00:18:00;;;;;;;4.82;3.53;;;;;;;;;;4993861;28;20050;-73
2022/06/11 00:20:28;;;;;;;7.85;3.35;;;;;;;;;;4992556;28;20057;-72
2022/06/11 00:22:54;;;;;;;6.40;3.67;;;;;;;;;;4992243;28;20058;-72
2022/06/11 00:25:21;;;;;;;6.95;3.53;;;;;;;;;;4993676;28;20560;-72
2022/06/11 00:27:48;;;;;;;6.15;3.70;;;;;;;;;;4993823;28;20080;-72
2022/06/11 00:30:14;;;;;;;5.50;3.72;;;;;;;;;;4993534;28;20121;-72
2022/06/11 00:32:41;;;;;;;6.85;3.55;;;;;;;;;;5004886;28;20497;-72
2022/06/11 00:35:09;;;;;;;5.47;3.83;;;;;;;;;;5013170;28;20096;-72
2022/06/11 00:37:35;;;;;;;4.35;3.47;;;;;;;;;;5013253;28;20049;-72
2022/06/11 00:40:04;;;;;;;5.78;3.53;;;;;;;;;;5013017;28;20174;-72
2022/06/11 00:42:33;;;;;;;4.80;3.75;;;;;;;;;;5012064;28;20050;-73
2022/06/11 00:45:33;;;;;;;4.38;3.30;;;;;;;;;;5012720;28;20112;-72
2022/06/11 00:48:43;;;;;;;5.15;3.25;;;;;;;;;;4997487;28;20054;-72
2022/06/11 00:51:13;;;;;;;4.50;3.60;;;;;;;;;;5008234;28;20045;-72
2022/06/11 00:53:44;;;;;;;5.35;3.30;;;;;;;;;;5012062;28;20105;-72
2022/06/11 00:56:24;;;;;;;5.57;3.40;;;;;;;;;;5013272;28;20049;-72
2022/06/11 00:58:51;;;;;;;6.13;3.40;;;;;;;;;;5011663;28;20532;-72
2022/06/11 01:01:20;;;;;;;6.55;3.67;;;;;;;;;;5002089;28;20061;-72
2022/06/11 01:03:47;;;;;;;5.88;3.80;;;;;;;;;;4991571;28;20489;-72
2022/06/11 01:06:20;;;;;;;4.43;3.40;;;;;;;;;;4993044;28;20050;-73
2022/06/11 01:09:02;;;;;;;5.65;3.58;;;;;;;;;;4992007;28;20054;-72
2022/06/11 01:11:35;;;;;;;4.15;3.38;;;;;;;;;;4992742;28;20054;-72
2022/06/11 01:14:37;;;;;;;6.93;3.63;;;;;;;;;;4991546;28;20512;-72
2022/06/11 01:17:19;;;;;;;5.13;3.40;;;;;;;;;;4991667;28;20054;-72
2022/06/11 01:20:13;;;;;;;8.48;3.53;;;;;;;;;;4991609;28;20054;-72
2022/06/11 01:23:17;;;;;;;5.68;3.40;;;;;;;;;;4992401;28;20493;-72
2022/06/11 01:26:14;;;;;;;6.20;3.70;;;;;;;;;;4992653;28;20551;-72
2022/06/11 01:29:18;;;;;;;5.70;3.75;;;;;;;;;;4991536;28;20425;-72
2022/06/11 01:32:33;;;;;;;3.47;3.17;;;;;;;;;;4992564;28;20047;-72
2022/06/11 01:35:16;;;;;;;3.28;2.80;;;;;;;;;;4933294;28;20105;-72
2022/06/11 01:37:46;;;;;;;5.50;3.13;;;;;;;;;;4991580;28;20054;-71
2022/06/11 01:40:21;;;;;;;5.35;3.25;;;;;;;;;;4992552;28;20050;-72
2022/06/11 01:42:55;;;;;;;3.28;3.00;;;;;;;;;;5001252;28;20065;-72
2022/06/11 01:45:23;;;;;;;3.50;3.20;;;;;;;;;;4994873;28;20076;-72
2022/06/11 01:47:51;;;;;;;3.67;2.80;;;;;;;;;;5012392;28;20108;-72
2022/06/11 01:50:22;;;;;;;4.82;3.25;;;;;;;;;;5003252;28;20084;-72
2022/06/11 01:53:04;;;;;;;7.80;3.15;;;;;;;;;;4992184;28;20065;-72
2022/06/11 01:55:34;;;;;;;3.22;2.92;;;;;;;;;;4995977;28;20493;-72
2022/06/11 01:58:22;;;;;;;4.47;3.33;;;;;;;;;;4996345;28;20517;-72
2022/06/11 02:01:01;;;;;;;7.10;2.90;;;;;;;;;;4996116;28;20097;-72
2022/06/11 02:03:30;;;;;;;4.22;2.95;;;;;;;;;;4995472;28;20549;-72
2022/06/11 02:06:05;;;;;;;6.32;3.28;;;;;;;;;;4996255;28;20058;-72
2022/06/11 02:08:47;;;;;;;4.68;2.90;;;;;;;;;;4995001;28;20051;-72
2022/06/11 02:11:29;;;;;;;4.75;3.10;;;;;;;;;;4996127;28;20054;-72
2022/06/11 02:14:02;;;;;;;6.47;3.35;;;;;;;;;;4995913;28;20046;-72
2022/06/11 02:16:33;;;;;;;4.80;3.13;;;;;;;;;;4996022;28;20062;-72
2022/06/11 02:19:04;;;;;;;4.13;3.05;;;;;;;;;;5006382;28;20046;-72
2022/06/11 02:21:33;;;;;;;4.78;3.35;;;;;;;;;;4998536;28;20049;-71
2022/06/11 02:24:02;;;;;;;9.30;3.08;;;;;;;;;;4998241;28;20050;-71
2022/06/11 02:26:35;;;;;;;5.05;3.25;;;;;;;;;;5015558;28;20108;-72
2022/06/11 02:29:03;;;;;;;3.55;2.95;;;;;;;;;;4998299;28;20104;-72
2022/06/11 02:31:32;;;;;;;4.43;3.40;;;;;;;;;;4998065;28;20050;-72
2022/06/11 02:34:03;;;;;;;4.13;3.45;;;;;;;;;;4997542;28;20046;-71
2022/06/11 02:36:32;;;;;;;6.57;4.55;;;;;;;;;;5014221;28;20054;-72
2022/06/11 02:39:01;;;;;;;4.30;3.90;;;;;;;;;;5015817;28;20085;-71
2022/06/11 02:41:31;;;;;;;6.65;3.95;;;;;;;;;;5015021;28;20508;-72
2022/06/11 02:43:58;;;;;;;6.90;3.70;;;;;;;;;;5013797;28;20046;-72
2022/06/11 02:46:43;;;;;;;4.78;3.40;;;;;;;;;;5015305;28;20475;-72
2022/06/11 02:49:18;;;;;;;3.45;3.10;;;;;;;;;;5014092;28;20060;-71
2022/06/11 02:51:46;;;;;;;6.15;3.78;;;;;;;;;;5014837;28;20054;-72
2022/06/11 02:54:13;;;;;;;6.88;3.80;;;;;;;;;;5013818;28;20050;-72
2022/06/11 02:56:40;;;;;;;5.70;3.83;;;;;;;;;;5015180;28;20421;-73
2022/06/11 02:59:07;;;;;;;6.30;3.58;;;;;;;;;;5013706;28;20053;-71
2022/06/11 03:01:34;;;;;;;4.22;3.80;;;;;;;;;;5014672;28;20493;-72
2022/06/11 03:04:01;;;;;;;4.18;3.35;;;;;;;;;;5013396;28;20536;-72
2022/06/11 03:06:29;;;;;;;4.93;3.58;;;;;;;;;;5013802;28;20058;-71
2022/06/11 03:08:57;;;;;;;7.07;3.55;;;;;;;;;;5015120;28;20050;-72
2022/06/11 03:11:24;;;;;;;9.85;3.97;;;;;;;;;;5014396;28;20397;-72
2022/06/11 03:13:51;;;;;;;6.22;4.10;;;;;;;;;;5047064;22;20037;-69
2022/06/11 03:16:18;;;;;;;5.43;3.60;;;;;;;;;;5046034;28;20045;-70
2022/06/11 03:18:44;;;;;;;6.47;4.22;;;;;;;;;;5034400;28;20140;-70
2022/06/11 03:21:11;;;;;;;4.80;3.83;;;;;;;;;;5034081;28;20049;-70
2022/06/11 03:23:38;;;;;;;6.18;4.05;;;;;;;;;;5034326;28;20042;-69
2022/06/11 03:26:06;;;;;;;6.65;4.07;;;;;;;;;;5034652;28;20053;-69
2022/06/11 03:28:34;;;;;;;7.18;3.53;;;;;;;;;;5034290;28;20132;-69
2022/06/11 03:31:03;;;;;;;6.68;3.72;;;;;;;;;;5034104;28;20111;-69
2022/06/11 03:33:30;;;;;;;4.80;3.88;;;;;;;;;;5034114;28;20052;-69
2022/06/11 03:35:57;;;;;;;3.88;3.58;;;;;;;;;;5033993;28;20050;-69
2022/06/11 03:38:23;;;;;;;8.10;4.15;;;;;;;;;;5034278;28;20111;-69
2022/06/11 03:40:50;;;;;;;4.93;4.10;;;;;;;;;;5034031;28;20075;-70
2022/06/11 03:43:17;;;;;;;5.38;3.65;;;;;;;;;;5035559;28;20057;-70
2022/06/11 03:45:43;;;;;;;8.95;4.00;;;;;;;;;;5040594;28;20072;-70
2022/06/11 03:48:11;;;;;;;5.13;4.15;;;;;;;;;;5039212;28;20068;-71
2022/06/11 03:50:39;;;;;;;7.38;4.32;;;;;;;;;;5040008;28;20061;-70
2022/06/11 03:53:08;;;;;;;6.38;3.63;;;;;;;;;;5040102;28;20056;-71
2022/06/11 03:55:36;;;;;;;5.63;5.07;;;;;;;;;;5035460;28;20076;-70
2022/06/11 03:58:03;;;;;;;6.68;4.07;;;;;;;;;;5033094;28;20056;-70
2022/06/11 04:03:16;;;;;;;3.92;3.05;;;;;;;;;;5033691;28;20049;-70
2022/06/11 04:05:44;;;;;;;6.50;4.03;;;;;;;;;;5033612;28;20049;-70
2022/06/11 04:08:11;;;;;;;5.40;3.90;;;;;;;;;;5033877;28;20060;-70
2022/06/11 04:10:38;;;;;;;7.22;4.13;;;;;;;;;;5032437;28;20054;-70
2022/06/11 04:13:05;;;;;;;6.65;4.00;;;;;;;;;;5033239;28;20147;-70
2022/06/11 04:15:32;;;;;;;5.22;3.95;;;;;;;;;;5033146;28;20084;-70
2022/06/11 04:18:00;;;;;;;6.43;3.80;;;;;;;;;;5033397;28;20050;-70
2022/06/11 04:20:27;;;;;;;6.60;3.90;;;;;;;;;;5015854;28;20156;-70
2022/06/11 04:22:54;;;;;;;8.25;4.13;;;;;;;;;;5033093;28;20112;-70
2022/06/11 04:25:21;;;;;;;6.50;4.03;;;;;;;;;;5033104;28;20104;-70
2022/06/11 04:27:53;;;;;;;6.80;3.80;;;;;;;;;;5033218;28;20480;-70
2022/06/11 04:30:21;;;;;;;4.68;3.60;;;;;;;;;;5033293;28;20049;-70
2022/06/11 04:32:48;;;;;;;6.70;3.53;;;;;;;;;;5032571;28;20057;-70
2022/06/11 04:35:15;;;;;;;6.60;4.13;;;;;;;;;;5033067;28;20045;-70
2022/06/11 04:37:41;;;;;;;5.03;3.67;;;;;;;;;;5026816;28;20049;-70
2022/06/11 04:40:09;;;;;;;4.88;4.10;;;;;;;;;;5027822;28;20066;-70
2022/06/11 04:42:36;;;;;;;4.68;3.78;;;;;;;;;;5025812;28;20056;-70
2022/06/11 04:45:04;;;;;;;5.32;3.45;;;;;;;;;;5031010;28;20045;-70
2022/06/11 04:47:32;;;;;;;6.72;3.63;;;;;;;;;;5032813;28;20053;-70
2022/06/11 04:50:00;;;;;;;6.32;3.63;;;;;;;;;;5024792;28;20100;-70
2022/06/11 04:52:27;;;;;;;8.35;4.00;;;;;;;;;;5020565;28;20045;-71
2022/06/11 04:54:54;;;;;;;5.72;3.97;;;;;;;;;;5012550;28;20527;-70
2022/06/11 04:57:21;;;;;;;5.13;3.67;;;;;;;;;;5012949;28;20476;-70
2022/06/11 04:59:48;;;;;;;6.28;3.75;;;;;;;;;;5012866;28;20123;-70
2022/06/11 05:02:15;;;;;;;5.32;3.75;;;;;;;;;;5012634;28;20050;-70
2022/06/11 05:04:41;;;;;;;5.15;4.22;;;;;;;;;;5012701;28;20049;-69
2022/06/11 05:07:08;;;;;;;6.40;3.65;;;;;;;;;;5011633;28;20488;-70
2022/06/11 05:09:35;;;;;;;5.57;3.75;;;;;;;;;;5012422;28;20060;-70
2022/06/11 05:12:02;;;;;;;8.25;4.07;;;;;;;;;;5012551;28;20054;-70
2022/06/11 05:14:29;;;;;;;6.57;3.83;;;;;;;;;;5014972;28;20072;-69
2022/06/11 05:16:56;;;;;;;6.95;3.95;;;;;;;;;;5032442;28;20080;-69
2022/06/11 05:19:23;;;;;;;6.43;3.85;;;;;;;;;;5032347;28;20100;-70
2022/06/11 05:21:50;;;;;;;4.97;3.47;;;;;;;;;;5031833;28;20050;-70
2022/06/11 05:24:19;;;;;;;6.78;3.70;;;;;;;;;;5017081;28;20053;-70
2022/06/11 05:26:50;;;;;;;4.90;3.42;;;;;;;;;;5012415;28;20053;-70
2022/06/11 05:29:40;;;;;;;4.68;3.40;;;;;;;;;;5020495;28;20045;-70
2022/06/11 05:32:07;;;;;;;4.97;3.50;;;;;;;;;;5030636;28;20057;-70
2022/06/11 05:34:34;;;;;;;5.45;3.92;;;;;;;;;;5031557;28;20049;-70
2022/06/11 05:37:00;;;;;;;4.20;3.55;;;;;;;;;;5032157;28;20057;-70
2022/06/11 05:39:28;;;;;;;3.60;3.30;;;;;;;;;;5031989;28;20049;-70
2022/06/11 05:41:55;;;;;;;4.32;3.60;;;;;;;;;;5030814;28;20056;-70
2022/06/11 05:44:22;;;;;;;3.97;3.08;;;;;;;;;;5031720;28;20099;-70
2022/06/11 05:46:49;;;;;;;7.07;3.45;;;;;;;;;;5031815;28;20045;-70
2022/06/11 05:49:18;;;;;;;5.05;3.25;;;;;;;;;;5031767;28;20060;-70
2022/06/11 05:51:47;;;;;;;4.32;3.22;;;;;;;;;;5014516;28;20428;-70
2022/06/11 05:54:17;;;;;;;3.25;2.95;;;;;;;;;;5030417;28;20041;-70
2022/06/11 05:56:44;;;;;;;4.72;2.80;;;;;;;;;;5002082;28;20054;-70
2022/06/11 05:59:23;;;;;;;4.05;3.38;;;;;;;;;;5010895;28;20050;-70
2022/06/11 06:01:50;;;;;;;3.25;2.78;;;;;;;;;;5010728;28;20058;-71
2022/06/11 06:04:16;;;;;;;4.00;2.75;;;;;;;;;;5011839;28;20492;-70
2022/06/11 06:06:43;;;;;;;4.78;2.92;;;;;;;;;;5012149;28;20427;-70
2022/06/11 06:09:10;;;;;;;6.38;2.78;;;;;;;;;;5011942;28;20050;-70
2022/06/11 06:11:36;;;;;;;2.60;2.40;;;;;;;;;;5011765;28;20475;-70
2022/06/11 06:14:03;;;;;;;5.82;2.78;;;;;;;;;;5011409;28;20061;-70
2022/06/11 06:16:30;;;;;;;3.67;2.22;;;;;;;;;;5011841;28;20058;-70
2022/06/11 06:18:58;;;;;;;3.92;2.35;;;;;;;;;;5010909;28;20057;-70
2022/06/11 06:21:28;;;;;;;7.75;2.58;;;;;;;;;;5011975;28;20084;-71
2022/06/11 06:23:55;;;;;;;3.88;2.10;;;;;;;;;;5011660;28;20050;-70
2022/06/11 06:26:22;;;;;;;2.83;2.58;;;;;;;;;;5011693;28;20050;-70
2022/06/11 06:28:49;;;;;;;5.45;2.30;;;;;;;;;;5011535;28;20474;-70
2022/06/11 06:31:16;;;;;;;2.72;2.10;;;;;;;;;;5011715;28;20069;-70
2022/06/11 06:33:43;;;;;;;4.15;2.42;;;;;;;;;;5011775;28;20104;-70
2022/06/11 06:36:10;;;;;;;6.72;2.67;;;;;;;;;;5011243;28;20413;-70
2022/06/11 06:38:38;;;;;;;6.68;2.25;;;;;;;;;;5011879;28;20073;-70
2022/06/11 06:41:05;;;;;;;4.93;2.30;;;;;;;;;;5011995;28;20064;-70
2022/06/11 06:43:32;;;;;;;3.08;2.28;;;;;;;;;;5013411;28;20489;-70
2022/06/11 06:45:59;;;;;;;6.00;1.83;;;;;;;;;;5013483;28;20050;-70
2022/06/11 06:48:27;;;;;;;2.03;1.60;;;;;;;;;;5013329;28;20065;-70
2022/06/11 06:50:53;;;;;;;3.40;1.83;;;;;;;;;;5026798;28;20107;-70
2022/06/11 06:53:21;;;;;;;5.10;1.77;;;;;;;;;;5032788;28;20056;-70
2022/06/11 06:55:48;;;;;;;2.85;2.10;;;;;;;;;;5032683;28;20041;-70
2022/06/11 06:58:15;;;;;;;5.75;2.00;;;;;;;;;;5032372;28;20049;-70
2022/06/11 07:00:43;;;;;;;2.83;1.73;;;;;;;;;;5032522;28;20064;-70
2022/06/11 07:03:13;;;;;;;3.30;1.88;;;;;;;;;;5032774;28;20633;-70
2022/06/11 07:05:41;;;;;;;4.07;2.20;;;;;;;;;;5013512;28;20100;-70
2022/06/11 07:08:08;;;;;;;3.78;1.60;;;;;;;;;;5011495;28;20096;-70
2022/06/11 07:10:40;;;;;;;2.65;1.67;;;;;;;;;;5012443;28;20130;-70
2022/06/11 07:13:07;;;;;;;2.70;1.48;;;;;;;;;;5012764;28;20050;-70
2022/06/11 07:15:34;;;;;;;5.18;1.55;;;;;;;;;;5012728;28;20065;-70
2022/06/11 07:18:07;;;;;;;5.93;1.70;;;;;;;;;;4995248;28;20054;-70
2022/06/11 07:20:34;;;;;;;4.35;1.65;;;;;;;;;;4995482;28;20057;-70
2022/06/11 07:23:10;;;;;;;2.47;1.77;;;;;;;;;;5011780;28;20053;-70
2022/06/11 07:25:38;;;;;;;1.80;1.33;;;;;;;;;;4996122;28;20053;-70
2022/06/11 07:28:13;;;;;;;3.85;2.15;;;;;;;;;;5011214;28;20088;-70
2022/06/11 07:30:39;;;;;;;2.53;1.73;;;;;;;;;;5011435;28;20057;-71
2022/06/11 07:33:10;;;;;;;5.22;2.40;;;;;;;;;;5018491;28;20045;-70
2022/06/11 07:35:37;;;;;;;3.58;1.75;;;;;;;;;;5031128;28;20058;-71
2022/06/11 07:38:05;;;;;;;4.05;1.70;;;;;;;;;;5028367;28;20420;-71
2022/06/11 07:40:32;;;;;;;6.47;1.90;;;;;;;;;;5014045;28;20053;-71
2022/06/11 07:42:59;;;;;;;5.07;1.88;;;;;;;;;;5014953;28;20046;-71
2022/06/11 07:45:26;;;;;;;3.05;1.92;;;;;;;;;;5023089;28;20090;-71
2022/06/11 07:47:56;;;;;;;6.75;2.05;;;;;;;;;;5012579;28;20056;-70
2022/06/11 07:50:30;;;;;;;2.97;2.13;;;;;;;;;;5014401;28;20049;-71
2022/06/11 07:52:57;;;;;;;4.05;1.67;;;;;;;;;;5020665;28;20054;-70
2022/06/11 07:55:25;;;;;;;3.22;1.67;;;;;;;;;;5021250;28;20038;-71
2022/06/11 07:57:52;;;;;;;4.57;1.90;;;;;;;;;;5019671;28;20497;-71
2022/06/11 08:00:23;;;;;;;4.45;2.13;;;;;;;;;;5024142;28;20059;-71
2022/06/11 08:02:49;;;;;;;4.38;1.80;;;;;;;;;;5022031;28;20053;-71
2022/06/11 08:05:17;;;;;;;3.67;1.70;;;;;;;;;;5027238;28;20050;-71
2022/06/11 08:07:44;;;;;;;2.20;1.50;;;;;;;;;;5011647;28;20065;-71
2022/06/11 08:10:11;;;;;;;2.65;1.60;;;;;;;;;;5011740;28;20104;-71
2022/06/11 08:12:38;;;;;;;4.32;1.52;;;;;;;;;;5011491;28;20050;-71
2022/06/11 08:15:05;;;;;;;2.28;1.58;;;;;;;;;;5011089;28;20135;-71
2022/06/11 08:17:33;;;;;;;23.80;5.20;;;;;;;;;;5012362;28;20046;-71
2022/06/11 08:20:01;;;;;;;3.63;1.60;;;;;;;;;;5013492;28;20060;-70
2022/06/11 08:22:27;;;;;;;9.32;2.17;;;;;;;;;;5011983;28;20052;-69
2022/06/11 08:24:54;;;;;;;9.25;2.55;;;;;;;;;;5013293;28;20413;-70
2022/06/11 08:27:21;;;;;;;2.42;1.77;;;;;;;;;;5013167;28;20053;-70
2022/06/11 08:29:47;;;;;;;7.78;2.67;;;;;;;;;;5013157;28;20050;-70
2022/06/11 08:32:14;;;;;;;2.30;1.30;;;;;;;;;;4995955;28;20062;-70
2022/06/11 08:34:42;;;;;;;5.63;2.00;;;;;;;;;;5013145;28;20066;-70
2022/06/11 08:37:09;;;;;;;4.90;2.13;;;;;;;;;;5013066;28;20046;-70
2022/06/11 08:39:36;;;;;;;3.70;1.73;;;;;;;;;;5013034;28;20053;-70
2022/06/11 08:42:04;;;;;;;5.13;1.90;;;;;;;;;;5022296;28;20050;-70
2022/06/11 08:44:35;;;;;;;3.67;1.88;;;;;;;;;;5015836;28;20080;-71
2022/06/11 08:47:04;;;;;;;3.10;1.47;;;;;;;;;;5032886;28;20049;-69
2022/06/11 08:49:39;;;;;;;2.92;1.50;;;;;;;;;;5015352;28;20291;-68
2022/06/11 08:52:22;;;;;;;2.70;1.60;;;;;;;;;;5031475;28;20060;-69
2022/06/11 08:54:49;;;;;;;3.03;1.48;;;;;;;;;;5027924;28;20081;-69
2022/06/11 08:57:25;;;;;;;7.70;2.00;;;;;;;;;;5030313;28;20156;-69
2022/06/11 08:59:55;;;;;;;4.90;1.80;;;;;;;;;;5021976;28;20042;-68
2022/06/11 09:02:33;;;;;;;5.05;1.63;;;;;;;;;;5025754;28;20504;-68
2022/06/11 09:05:21;;;;;;;4.68;1.73;;;;;;;;;;5024156;28;20164;-68
2022/06/11 09:08:24;;;;;;;4.20;1.30;;;;;;;;;;5023392;28;20052;-68
2022/06/11 09:11:12;;;;;;;2.40;1.17;;;;;;;;;;4973639;28;20551;-68
2022/06/11 09:13:53;;;;;;;2.42;1.10;;;;;;;;;;5019868;28;20100;-69
2022/06/11 09:16:38;;;;;;;4.13;1.27;;;;;;;;;;5075385;22;20048;-68
2022/06/11 09:19:20;;;;;;;4.07;1.40;;;;;;;;;;5072018;28;20453;-67
2022/06/11 09:21:56;;;;;;;3.58;1.27;;;;;;;;;;5056363;28;20151;-67
2022/06/11 09:25:13;;;;;;;3.95;1.35;;;;;;;;;;5061342;28;20091;-68
2022/06/11 09:27:49;;;;;;;4.00;1.13;;;;;;;;;;5024343;28;20244;-68
2022/06/11 09:30:25;;;;;;;2.38;1.52;;;;;;;;;;5031917;28;20065;-67
2022/06/11 09:33:04;;;;;;;4.63;1.30;;;;;;;;;;5018477;28;20048;-68
2022/06/11 09:35:55;;;;;;;4.20;1.25;;;;;;;;;;5018117;28;20054;-68
2022/06/11 09:38:35;;;;;;;5.15;1.52;;;;;;;;;;5037598;28;20103;-68
2022/06/11 09:41:02;;;;;;;2.70;1.35;;;;;;;;;;5039662;28;20049;-68
2022/06/11 09:43:42;;;;;;;2.88;1.20;;;;;;;;;;5044257;28;20053;-68
2022/06/11 09:46:18;;;;;;;3.55;1.45;;;;;;;;;;5044413;28;20067;-68
2022/06/11 09:49:12;;;;;;;2.75;1.50;;;;;;;;;;5042802;28;20132;-69
2022/06/11 09:51:46;;;;;;;6.38;2.47;;;;;;;;;;5014630;28;20049;-69
2022/06/11 09:54:40;;;;;;;3.00;1.25;;;;;;;;;;5034021;28;20045;-68
2022/06/11 09:57:15;;;;;;;4.75;1.80;;;;;;;;;;5041166;28;20484;-68
2022/06/11 09:59:43;;;;;;;4.00;1.58;;;;;;;;;;5035502;28;20122;-64
2022/06/11 10:02:31;;;;;;;4.63;1.95;;;;;;;;;;5025314;28;20065;-67
2022/06/11 10:04:58;;;;;;;2.22;1.30;;;;;;;;;;5034810;28;20052;-73
2022/06/11 10:07:31;;;;;;;4.55;1.40;;;;;;;;;;5054629;28;20046;-66
2022/06/11 10:10:22;;;;;;;3.83;1.20;;;;;;;;;;5035458;28;20488;-70
2022/06/11 10:12:57;;;;;;;4.53;1.30;;;;;;;;;;5035144;28;20099;-65
2022/06/11 10:15:34;;;;;;;6.50;1.35;;;;;;;;;;5038986;28;20060;-64
2022/06/11 10:18:09;;;;;;;6.15;1.45;;;;;;;;;;5045382;28;20140;-69
2022/06/11 10:20:40;;;;;;;4.93;1.50;;;;;;;;;;5028858;28;20546;-67
2022/06/11 10:23:31;;;;;;;4.82;1.35;;;;;;;;;;5042494;28;20085;-70
2022/06/11 10:26:16;;;;;;;3.80;1.42;;;;;;;;;;5040106;28;20049;-70
2022/06/11 10:28:53;;;;;;;2.78;1.30;;;;;;;;;;5046972;28;20408;-70
2022/06/11 10:31:27;;;;;;;2.97;1.58;;;;;;;;;;5041542;28;20053;-70
2022/06/11 10:34:19;;;;;;;5.18;1.33;;;;;;;;;;5048918;28;20530;-69
2022/06/11 10:36:59;;;;;;;4.72;1.67;;;;;;;;;;5032186;28;20049;-69
2022/06/11 10:39:47;;;;;;;4.47;1.35;;;;;;;;;;5041142;28;20046;-70
2022/06/11 10:42:18;;;;;;;3.80;1.58;;;;;;;;;;5043479;28;20504;-70
2022/06/11 10:44:52;;;;;;;3.95;1.55;;;;;;;;;;5043038;28;20127;-64
2022/06/11 10:47:27;;;;;;;1.95;1.30;;;;;;;;;;5046322;28;20041;-64
2022/06/11 10:50:23;;;;;;;2.80;1.50;;;;;;;;;;5040108;28;20393;-66
2022/06/11 10:52:59;;;;;;;4.13;1.40;;;;;;;;;;5016520;28;20053;-65
2022/06/11 10:55:49;;;;;;;4.93;1.67;;;;;;;;;;5039717;28;20045;-65
2022/06/11 10:58:35;;;;;;;3.08;1.40;;;;;;;;;;5038255;28;20092;-69
2022/06/11 11:01:22;;;;;;;6.85;1.80;;;;;;;;;;5038764;28;20412;-73
2022/06/11 11:03:52;;;;;;;2.53;1.40;;;;;;;;;;5042784;28;20053;-68
2022/06/11 11:06:26;;;;;;;3.80;1.75;;;;;;;;;;5040131;28;20496;-67
2022/06/11 11:08:55;;;;;;;3.00;1.27;;;;;;;;;;5042105;28;20048;-73
2022/06/11 11:11:23;;;;;;;5.25;2.00;;;;;;;;;;5023849;28;20049;-73
2022/06/11 11:13:50;;;;;;;3.67;1.58;;;;;;;;;;5038447;28;20046;-74
2022/06/11 11:16:23;;;;;;;3.15;1.23;;;;;;;;;;5039530;28;20049;-73
2022/06/11 11:19:19;;;;;;;4.18;1.60;;;;;;;;;;5024000;28;20210;-73
2022/06/11 11:22:03;;;;;;;6.55;1.77;;;;;;;;;;5040959;28;20045;-74
2022/06/11 11:24:42;;;;;;;7.00;2.13;;;;;;;;;;5039667;28;20091;-74
2022/06/11 11:27:17;;;;;;;3.85;2.28;;;;;;;;;;5020971;28;20049;-74
2022/06/11 11:29:57;;;;;;;6.28;2.80;;;;;;;;;;5043558;28;20045;-74
2022/06/11 11:32:33;;;;;;;6.18;2.17;;;;;;;;;;5039534;28;20054;-73
2022/06/11 11:35:24;;;;;;;4.65;1.98;;;;;;;;;;5041142;28;20045;-75
2022/06/11 11:38:01;;;;;;;2.92;1.40;;;;;;;;;;5033837;28;20049;-73
2022/06/11 11:40:33;;;;;;;2.88;1.30;;;;;;;;;;5042736;28;20053;-73
2022/06/11 11:43:10;;;;;;;5.22;1.52;;;;;;;;;;5039240;28;20045;-74
2022/06/11 11:45:43;;;;;;;2.88;1.25;;;;;;;;;;5038341;28;20049;-74
2022/06/11 11:48:15;;;;;;;4.85;1.52;;;;;;;;;;5041259;28;20111;-74
2022/06/11 11:50:42;;;;;;;4.30;1.67;;;;;;;;;;5038740;28;20045;-73
2022/06/11 11:53:23;;;;;;;3.90;1.75;;;;;;;;;;5041966;28;20389;-73
2022/06/11 11:55:57;;;;;;;2.17;1.45;;;;;;;;;;5039204;28;20557;-73
2022/06/11 11:58:35;;;;;;;4.13;1.40;;;;;;;;;;5038631;28;20400;-74
2022/06/11 12:01:08;;;;;;;3.80;1.55;;;;;;;;;;5038403;28;20057;-73
2022/06/11 12:03:38;;;;;;;4.40;1.63;;;;;;;;;;5053744;28;20079;-73
2022/06/11 12:06:05;;;;;;;2.78;1.13;;;;;;;;;;5037545;28;20562;-74
2022/06/11 12:08:37;;;;;;;3.05;1.40;;;;;;;;;;5041956;28;20052;-74
2022/06/11 12:11:05;;;;;;;6.45;1.50;;;;;;;;;;5023795;28;20327;-73
2022/06/11 12:13:43;;;;;;;3.33;1.58;;;;;;;;;;5044415;28;20049;-72
2022/06/11 12:16:25;;;;;;;4.10;1.38;;;;;;;;;;5044813;28;20060;-67
2022/06/11 12:18:59;;;;;;;3.28;1.38;;;;;;;;;;5042521;28;20059;-65
2022/06/11 12:21:32;;;;;;;3.40;1.23;;;;;;;;;;5041728;28;20416;-65
2022/06/11 12:24:00;;;;;;;4.57;1.65;;;;;;;;;;5029591;28;20420;-64
2022/06/11 12:26:29;;;;;;;1.92;1.20;;;;;;;;;;5043629;28;20470;-72
2022/06/11 12:29:12;;;;;;;2.90;1.40;;;;;;;;;;5029051;28;20045;-66
2022/06/11 12:31:38;;;;;;;2.55;1.15;;;;;;;;;;5043775;28;20048;-65
2022/06/11 12:34:31;;;;;;;3.28;1.30;;;;;;;;;;5038222;28;20049;-65
2022/06/11 12:37:09;;;;;;;6.63;1.40;;;;;;;;;;5039411;28;20073;-64
2022/06/11 12:40:08;;;;;;;3.10;1.27;;;;;;;;;;5043358;28;20559;-72
2022/06/11 12:43:03;;;;;;;3.15;1.38;;;;;;;;;;5039882;28;20107;-72
2022/06/11 12:46:12;;;;;;;3.05;1.30;;;;;;;;;;5037907;28;20114;-66
2022/06/11 12:48:59;;;;;;;3.15;1.40;;;;;;;;;;5041340;28;20407;-69
2022/06/11 12:51:41;;;;;;;3.40;1.50;;;;;;;;;;5038945;28;20107;-67
2022/06/11 12:54:17;;;;;;;4.63;1.23;;;;;;;;;;5040713;28;20041;-72
2022/06/11 12:57:11;;;;;;;3.38;1.25;;;;;;;;;;5015664;28;20535;-69
2022/06/11 12:59:46;;;;;;;5.50;1.45;;;;;;;;;;5031424;28;20049;-72
2022/06/11 13:02:39;;;;;;;2.55;1.05;;;;;;;;;;5032114;28;20049;-71
2022/06/11 13:05:27;;;;;;;1.50;1.08;;;;;;;;;;5031434;28;20049;-72
2022/06/11 13:08:07;;;;;;;3.83;1.40;;;;;;;;;;5031996;28;20439;-72
2022/06/11 13:10:47;;;;;;;3.10;1.05;;;;;;;;;;5050542;28;20064;-72
2022/06/11 13:13:45;;;;;;;1.83;0.90;;;;;;;;;;5030612;28;20057;-72
2022/06/11 13:16:14;;;;;;;2.78;1.20;;;;;;;;;;5043108;28;20071;-72
2022/06/11 13:19:10;;;;;;;2.83;1.25;;;;;;;;;;5052472;28;20132;-72
2022/06/11 13:22:00;;;;;;;2.88;1.10;;;;;;;;;;5048905;28;20053;-73
2022/06/11 13:25:01;;;;;;;3.58;1.27;;;;;;;;;;5003855;28;20053;-73
2022/06/11 13:27:46;;;;;;;1.95;1.10;;;;;;;;;;4972780;28;20053;-72
2022/06/11 13:30:21;;;;;;;2.33;0.98;;;;;;;;;;5032290;28;20050;-72
2022/06/11 13:33:22;;;;;;;2.47;1.17;;;;;;;;;;5030715;28;20049;-72
2022/06/11 13:35:53;;;;;;;4.17;1.23;;;;;;;;;;5031812;28;20452;-73
2022/06/11 13:38:29;;;;;;;3.47;1.25;;;;;;;;;;5032002;28;20050;-72
2022/06/11 13:41:13;;;;;;;3.42;1.00;;;;;;;;;;5051684;28;20048;-73
2022/06/11 13:43:47;;;;;;;2.05;0.98;;;;;;;;;;5035615;28;20304;-73
2022/06/11 13:46:43;;;;;;;3.40;1.10;;;;;;;;;;5050374;28;20098;-73
2022/06/11 13:49:19;;;;;;;2.83;1.48;;;;;;;;;;5036503;28;20056;-72
2022/06/11 13:51:48;;;;;;;2.38;1.33;;;;;;;;;;5051330;28;20106;-73
2022/06/11 13:57:42;;;;;;;3.30;1.50;;;;;;;;;;5051500;28;20154;-73
2022/06/11 14:00:22;;;;;;;7.18;3.42;;;;;;;;;;5035388;28;20118;-72
2022/06/11 14:03:12;;;;;;;4.20;1.55;;;;;;;;;;5050128;28;20102;-72
2022/06/11 14:05:43;;;;;;;1.48;1.05;;;;;;;;;;5050281;28;20057;-72
2022/06/11 14:08:10;;;;;;;2.67;1.13;;;;;;;;;;5050603;28;20095;-72
2022/06/11 14:10:48;;;;;;;2.20;1.38;;;;;;;;;;5033638;28;20049;-75
2022/06/11 14:13:21;;;;;;;3.95;1.50;;;;;;;;;;5034927;28;20056;-75
2022/06/11 14:15:51;;;;;;;2.63;1.20;;;;;;;;;;5051417;28;20132;-76
2022/06/11 14:18:24;;;;;;;3.60;1.30;;;;;;;;;;5048170;28;20056;-75
2022/06/11 14:20:53;;;;;;;3.20;1.30;;;;;;;;;;5051350;28;20053;-76
2022/06/11 14:23:23;;;;;;;1.88;0.98;;;;;;;;;;5051415;28;20048;-75
2022/06/11 14:25:50;;;;;;;12.35;1.65;;;;;;;;;;5047413;28;20049;-74
2022/06/11 14:28:37;;;;;;;1.98;1.10;;;;;;;;;;5051456;28;20049;-77
2022/06/11 14:31:06;;;;;;;3.95;1.45;;;;;;;;;;5051092;28;20495;-76
2022/06/11 14:33:33;;;;;;;2.42;1.20;;;;;;;;;;5033913;28;20052;-79
2022/06/11 14:36:10;;;;;;;2.95;1.48;;;;;;;;;;5051541;28;20061;-77
2022/06/11 14:38:45;;;;;;;2.58;1.40;;;;;;;;;;5034995;28;20388;-75
2022/06/11 14:41:11;;;;;;;3.38;1.40;;;;;;;;;;5050064;28;20392;-73
2022/06/11 14:43:53;;;;;;;2.10;1.40;;;;;;;;;;5051243;28;20052;-75
2022/06/11 14:46:29;;;;;;;3.55;1.30;;;;;;;;;;5042487;28;20049;-74
2022/06/11 14:49:17;;;;;;;3.75;1.60;;;;;;;;;;5031100;28;20065;-73
2022/06/11 14:52:02;;;;;;;1.77;1.20;;;;;;;;;;5031067;28;20119;-74
2022/06/11 14:54:48;;;;;;;2.70;1.23;;;;;;;;;;5030995;28;20488;-73
2022/06/11 14:57:28;;;;;;;3.13;1.23;;;;;;;;;;5031232;28;20127;-74
2022/06/11 15:00:26;;;;;;;5.55;1.55;;;;;;;;;;5030346;28;20477;-73
2022/06/11 15:03:14;;;;;;;2.40;1.20;;;;;;;;;;5031857;28;20136;-74
2022/06/11 15:06:05;;;;;;;2.45;1.40;;;;;;;;;;5034688;28;20095;-74
2022/06/11 15:08:41;;;;;;;4.10;0.98;;;;;;;;;;5034596;28;20099;-74
2022/06/11 15:11:35;;;;;;;3.30;1.30;;;;;;;;;;5034866;28;20467;-74
2022/06/11 15:14:34;;;;;;;4.10;1.77;;;;;;;;;;5043997;28;20053;-74
2022/06/11 15:17:35;;;;;;;4.05;1.13;;;;;;;;;;5043676;22;20099;-68
2022/06/11 15:20:18;;;;;;;3.83;1.40;;;;;;;;;;5013393;28;20056;-68
2022/06/11 15:22:45;;;;;;;4.57;1.60;;;;;;;;;;5029333;28;20053;-68
2022/06/11 15:25:19;;;;;;;1.73;1.23;;;;;;;;;;5013586;28;20081;-68
2022/06/11 15:27:51;;;;;;;2.53;1.40;;;;;;;;;;5046258;28;20416;-68
2022/06/11 15:30:23;;;;;;;1.70;1.20;;;;;;;;;;5032998;28;20085;-68